createdAt,value
2022-10-31T00:00:12.614Z,92.13
2022-10-31T00:02:39.459Z,92.67
2022-10-31T00:05:05.747Z,93.98
2022-10-31T00:07:32.016Z,94.93
2022-10-31T00:09:58.280Z,94.09
2022-10-31T00:12:24.553Z,94.09
2022-10-31T00:14:50.796Z,93.29
2022-10-31T00:17:17.070Z,93.13
2022-10-31T00:19:43.329Z,92.28
2022-10-31T00:22:09.573Z,92.78
2022-10-31T00:24:35.834Z,92.67
2022-10-31T00:27:02.080Z,92.19
2022-10-31T00:29:28.347Z,93.11
2022-10-31T00:31:54.618Z,92.76
2022-10-31T00:34:20.866Z,92.36
2022-10-31T00:36:47.105Z,91.54
2022-10-31T00:39:13.365Z,91.26
2022-10-31T00:41:39.693Z,91.05
2022-10-31T00:44:05.989Z,91.50
2022-10-31T00:46:32.286Z,92.95
2022-10-31T00:48:58.549Z,94.67
2022-10-31T00:51:24.819Z,94.56
2022-10-31T00:53:51.075Z,94.31
2022-10-31T00:56:17.371Z,94.28
2022-10-31T00:58:43.635Z,94.46
2022-10-31T01:01:09.988Z,94.25
2022-10-31T01:03:36.384Z,93.97
2022-10-31T01:06:02.691Z,93.16
2022-10-31T01:08:28.944Z,93.88
2022-10-31T01:10:55.210Z,95.59
2022-10-31T01:15:48.562Z,94.60
2022-10-31T01:18:14.817Z,94.71
2022-10-31T01:20:41.065Z,93.84
2022-10-31T01:23:07.342Z,94.62
2022-10-31T01:25:33.589Z,94.77
2022-10-31T01:28:00.043Z,94.20
2022-10-31T01:30:26.506Z,93.56
2022-10-31T01:32:52.798Z,93.04
2022-10-31T01:35:19.041Z,93.35
2022-10-31T01:37:45.289Z,93.65
2022-10-31T01:40:11.574Z,94.01
2022-10-31T01:42:37.821Z,93.48
2022-10-31T01:45:04.070Z,93.68
2022-10-31T01:47:30.620Z,94.18
2022-10-31T01:49:56.870Z,93.76
2022-10-31T01:52:23.126Z,93.05
2022-10-31T01:54:49.429Z,92.94
2022-10-31T01:57:16.177Z,94.29
2022-10-31T01:59:42.426Z,93.26
2022-10-31T02:02:08.863Z,92.49
2022-10-31T02:04:35.177Z,94.35
2022-10-31T02:07:01.437Z,94.30
2022-10-31T02:09:27.685Z,93.59
2022-10-31T02:11:53.928Z,92.79
2022-10-31T02:14:20.186Z,93.42
2022-10-31T02:16:46.435Z,93.54
2022-10-31T02:19:12.684Z,93.25
2022-10-31T02:21:38.978Z,95.19
2022-10-31T02:24:05.234Z,95.48
2022-10-31T02:26:31.487Z,94.94
2022-10-31T02:28:57.752Z,95.33
2022-10-31T02:31:24.012Z,95.58
2022-10-31T02:33:50.433Z,95.21
2022-10-31T02:36:16.692Z,94.82
2022-10-31T02:38:42.961Z,94.49
2022-10-31T02:41:09.210Z,94.18
2022-10-31T02:43:35.632Z,94.13
2022-10-31T02:46:01.889Z,98.12
2022-10-31T02:48:28.190Z,99.58
2022-10-31T02:50:54.487Z,97.16
2022-10-31T02:53:20.761Z,97.17
2022-10-31T02:55:47.004Z,97.45
2022-10-31T02:58:13.361Z,96.33
2022-10-31T03:00:39.671Z,96.26
2022-10-31T03:03:05.954Z,95.77
2022-10-31T03:05:32.262Z,94.71
2022-10-31T03:07:58.550Z,96.57
2022-10-31T03:10:24.799Z,96.72
2022-10-31T03:12:51.088Z,95.58
2022-10-31T03:15:17.342Z,95.63
2022-10-31T03:17:43.620Z,94.93
2022-10-31T03:20:09.866Z,95.04
2022-10-31T03:22:36.137Z,94.91
2022-10-31T03:25:02.385Z,95.08
2022-10-31T03:27:28.647Z,95.13
2022-10-31T03:29:54.914Z,94.16
2022-10-31T03:32:21.165Z,94.22
2022-10-31T03:34:47.420Z,94.11
2022-10-31T03:37:13.681Z,95.26
2022-10-31T03:39:39.945Z,95.44
2022-10-31T03:42:06.206Z,94.73
2022-10-31T03:44:32.462Z,95.18
2022-10-31T03:46:58.745Z,94.95
2022-10-31T03:49:24.996Z,95.27
2022-10-31T03:51:51.261Z,95.13
2022-10-31T03:54:17.513Z,95.01
2022-10-31T03:56:43.762Z,94.59
2022-10-31T03:59:10.010Z,95.44
2022-10-31T04:01:36.410Z,95.61
2022-10-31T04:04:02.720Z,94.61
2022-10-31T04:06:28.969Z,94.81
2022-10-31T04:08:55.219Z,97.39
2022-10-31T04:11:21.478Z,96.17
2022-10-31T04:13:47.751Z,95.57
2022-10-31T04:16:16.950Z,95.50
2022-10-31T04:18:43.758Z,95.12
2022-10-31T04:21:10.011Z,95.59
2022-10-31T04:23:36.317Z,95.30
2022-10-31T04:26:02.584Z,95.16
2022-10-31T04:28:28.844Z,94.29
2022-10-31T04:30:55.108Z,93.74
2022-10-31T04:33:21.391Z,94.69
2022-10-31T04:35:47.656Z,94.76
2022-10-31T04:38:13.942Z,93.92
2022-10-31T04:43:30.233Z,94.35
2022-10-31T04:45:56.569Z,94.34
2022-10-31T04:48:22.820Z,93.97
2022-10-31T04:50:49.072Z,95.10
2022-10-31T04:53:15.418Z,96.25
2022-10-31T04:55:41.661Z,95.55
2022-10-31T04:58:07.946Z,94.50
2022-10-31T05:00:34.842Z,94.58
2022-10-31T05:03:01.565Z,94.59
2022-10-31T05:05:27.982Z,94.86
2022-10-31T05:07:54.244Z,96.08
2022-10-31T05:10:20.578Z,95.29
2022-10-31T05:12:47.493Z,94.71
2022-10-31T05:15:13.775Z,95.46
2022-10-31T05:17:40.047Z,94.97
2022-10-31T05:20:06.336Z,95.64
2022-10-31T05:22:32.586Z,96.13
2022-10-31T05:24:58.863Z,95.94
2022-10-31T05:27:25.125Z,94.95
2022-10-31T05:29:51.416Z,95.28
2022-10-31T05:32:17.698Z,95.17
2022-10-31T05:34:43.937Z,95.04
2022-10-31T05:37:10.201Z,95.90
2022-10-31T05:39:36.450Z,96.38
2022-10-31T05:42:02.919Z,96.67
2022-10-31T05:44:29.162Z,95.74
2022-10-31T05:46:55.419Z,96.04
2022-10-31T05:49:21.694Z,95.92
2022-10-31T05:51:47.941Z,95.21
2022-10-31T05:54:15.982Z,97.23
2022-10-31T05:56:42.510Z,96.79
2022-10-31T05:59:08.768Z,95.12
2022-10-31T06:01:35.056Z,94.94
2022-10-31T06:04:01.345Z,95.80
2022-10-31T06:06:27.614Z,95.23
2022-10-31T06:08:53.890Z,95.14
2022-10-31T06:11:20.159Z,94.70
2022-10-31T06:13:46.413Z,94.61
2022-10-31T06:16:12.668Z,94.97
2022-10-31T06:18:38.909Z,95.46
2022-10-31T06:21:05.154Z,95.38
2022-10-31T06:23:31.409Z,95.15
2022-10-31T06:25:57.709Z,95.10
2022-10-31T06:28:23.960Z,95.34
2022-10-31T06:30:50.201Z,94.81
2022-10-31T06:33:16.452Z,95.36
2022-10-31T06:35:42.727Z,95.76
2022-10-31T06:38:08.985Z,95.60
2022-10-31T06:40:35.260Z,95.38
2022-10-31T06:43:01.534Z,95.34
2022-10-31T06:45:27.827Z,95.03
2022-10-31T06:48:15.542Z,95.88
2022-10-31T06:50:40.627Z,95.30
2022-10-31T06:53:07.071Z,95.34
2022-10-31T06:55:33.380Z,96.29
2022-10-31T06:58:02.026Z,96.15
2022-10-31T07:00:29.583Z,95.96
2022-10-31T07:02:55.875Z,95.05
2022-10-31T07:05:22.182Z,94.43
2022-10-31T07:07:48.600Z,94.48
2022-10-31T07:10:14.853Z,94.19
2022-10-31T07:12:42.047Z,93.58
2022-10-31T07:15:08.236Z,93.37
2022-10-31T07:17:34.801Z,93.50
2022-10-31T07:20:01.066Z,92.87
2022-10-31T07:22:27.403Z,92.31
2022-10-31T07:24:53.663Z,91.71
2022-10-31T07:27:19.915Z,91.03
2022-10-31T07:29:46.317Z,90.28
2022-10-31T07:32:12.566Z,89.84
2022-10-31T07:34:41.253Z,89.59
2022-10-31T07:37:11.067Z,89.81
2022-10-31T07:39:37.326Z,89.49
2022-10-31T07:42:03.611Z,89.08
2022-10-31T07:44:29.877Z,88.98
2022-10-31T07:46:56.125Z,88.29
2022-10-31T07:49:22.408Z,88.42
2022-10-31T07:51:48.664Z,87.69
2022-10-31T07:54:14.909Z,87.19
2022-10-31T07:56:41.181Z,86.96
2022-10-31T07:59:07.529Z,86.08
2022-10-31T08:01:33.841Z,86.77
2022-10-31T08:04:00.094Z,87.33
2022-10-31T08:06:26.404Z,85.68
2022-10-31T08:08:52.680Z,85.59
2022-10-31T08:11:19.002Z,84.88
2022-10-31T08:13:45.333Z,85.39
2022-10-31T08:16:11.721Z,85.53
2022-10-31T08:18:38.727Z,85.00
2022-10-31T08:21:06.508Z,83.98
2022-10-31T08:23:32.767Z,84.12
2022-10-31T08:25:59.070Z,83.56
2022-10-31T08:28:25.333Z,83.27
2022-10-31T08:30:51.611Z,82.47
2022-10-31T08:33:17.959Z,82.86
2022-10-31T08:35:44.269Z,82.90
2022-10-31T08:38:13.751Z,81.96
2022-10-31T08:40:40.018Z,82.89
2022-10-31T08:43:06.485Z,82.08
2022-10-31T08:45:32.842Z,81.92
2022-10-31T08:47:59.517Z,81.00
2022-10-31T08:50:26.009Z,81.48
2022-10-31T08:53:04.674Z,81.89
2022-10-31T08:55:32.034Z,81.18
2022-10-31T08:57:58.624Z,80.37
2022-10-31T09:00:25.221Z,80.06
2022-10-31T09:02:51.501Z,80.64
2022-10-31T09:05:17.809Z,80.41
2022-10-31T09:07:44.053Z,80.89
2022-10-31T09:10:10.331Z,79.97
2022-10-31T09:12:36.589Z,80.72
2022-10-31T09:15:02.879Z,79.35
2022-10-31T09:17:31.609Z,79.50
2022-10-31T09:19:57.918Z,79.75
2022-10-31T09:22:24.174Z,79.30
2022-10-31T09:24:50.482Z,78.85
2022-10-31T09:27:16.738Z,78.28
2022-10-31T09:29:43.038Z,77.80
2022-10-31T09:32:09.292Z,77.39
2022-10-31T09:34:35.541Z,76.88
2022-10-31T09:37:01.820Z,76.56
2022-10-31T09:39:28.090Z,76.67
2022-10-31T09:41:56.281Z,76.69
2022-10-31T09:44:23.581Z,76.25
2022-10-31T09:46:49.862Z,75.23
2022-10-31T09:49:16.170Z,75.46
2022-10-31T09:51:42.449Z,74.00
2022-10-31T09:54:09.758Z,73.65
2022-10-31T09:56:36.390Z,73.51
2022-10-31T09:59:02.748Z,72.91
2022-10-31T10:01:29.143Z,71.94
2022-10-31T10:03:55.624Z,73.68
2022-10-31T10:06:21.877Z,73.12
2022-10-31T10:08:48.212Z,72.37
2022-10-31T10:11:14.490Z,72.11
2022-10-31T10:13:40.754Z,72.03
2022-10-31T10:16:07.022Z,71.31
2022-10-31T10:18:33.295Z,71.14
2022-10-31T10:20:59.760Z,70.52
2022-10-31T10:23:26.033Z,70.87
2022-10-31T10:25:52.314Z,70.18
2022-10-31T10:28:19.044Z,70.92
2022-10-31T10:30:45.332Z,70.55
2022-10-31T10:33:11.624Z,70.16
2022-10-31T10:35:37.882Z,70.04
2022-10-31T10:38:04.290Z,70.16
2022-10-31T10:40:30.745Z,70.39
2022-10-31T10:43:15.535Z,69.23
2022-10-31T10:46:00.252Z,69.62
2022-10-31T10:48:26.527Z,69.88
2022-10-31T10:50:52.788Z,68.73
2022-10-31T10:53:22.346Z,68.33
2022-10-31T10:55:48.669Z,67.21
2022-10-31T10:58:14.942Z,67.04
2022-10-31T11:00:41.305Z,66.06
2022-10-31T11:03:07.725Z,65.90
2022-10-31T11:05:34.088Z,65.52
2022-10-31T11:08:00.384Z,67.41
2022-10-31T11:10:26.667Z,66.54
2022-10-31T11:12:52.935Z,66.57
2022-10-31T11:15:19.217Z,66.25
2022-10-31T11:17:45.583Z,66.21
2022-10-31T11:20:16.224Z,65.58
2022-10-31T11:22:45.270Z,66.51
2022-10-31T11:25:11.721Z,66.46
2022-10-31T11:27:37.972Z,66.96
2022-10-31T11:30:04.243Z,67.14
2022-10-31T11:32:30.710Z,68.05
2022-10-31T11:34:57.044Z,66.91
2022-10-31T11:37:23.321Z,66.29
2022-10-31T11:39:54.057Z,66.69
2022-10-31T11:42:20.366Z,66.30
2022-10-31T11:44:46.694Z,66.33
2022-10-31T11:47:12.977Z,66.72
2022-10-31T11:49:39.245Z,65.48
2022-10-31T11:52:05.530Z,65.23
2022-10-31T11:54:31.822Z,65.10
2022-10-31T11:56:58.111Z,65.31
2022-10-31T11:59:24.389Z,65.20
2022-10-31T12:01:50.851Z,65.86
2022-10-31T12:04:18.001Z,65.20
2022-10-31T12:06:44.257Z,65.59
2022-10-31T12:09:10.578Z,65.43
2022-10-31T12:11:36.878Z,65.99
2022-10-31T12:14:04.259Z,65.84
2022-10-31T12:19:19.108Z,65.95
2022-10-31T12:21:45.776Z,65.88
2022-10-31T12:24:12.029Z,65.53
2022-10-31T12:26:38.586Z,65.32
2022-10-31T12:29:04.885Z,64.77
2022-10-31T12:31:31.138Z,64.63
2022-10-31T12:33:57.401Z,64.52
2022-10-31T12:36:23.672Z,64.69
2022-10-31T12:38:49.965Z,64.05
2022-10-31T12:41:16.225Z,64.28
2022-10-31T12:43:42.496Z,64.01
2022-10-31T12:46:09.244Z,64.17
2022-10-31T12:48:35.580Z,63.71
2022-10-31T12:51:01.856Z,62.01
2022-10-31T12:53:28.728Z,62.95
2022-10-31T12:55:55.038Z,63.63
2022-10-31T12:58:21.293Z,62.99
2022-10-31T13:00:47.682Z,63.29
2022-10-31T13:03:13.969Z,63.32
2022-10-31T13:05:41.231Z,64.03
2022-10-31T13:08:07.652Z,64.17
2022-10-31T13:10:36.441Z,63.04
2022-10-31T13:13:03.006Z,62.20
2022-10-31T13:15:29.427Z,62.32
2022-10-31T13:17:55.716Z,60.45
2022-10-31T13:20:22.005Z,61.87
2022-10-31T13:22:48.289Z,61.75
2022-10-31T13:25:14.600Z,62.08
2022-10-31T13:27:40.849Z,62.06
2022-10-31T13:30:07.161Z,61.91
2022-10-31T13:32:34.063Z,62.35
2022-10-31T13:35:00.806Z,61.60
2022-10-31T13:37:27.098Z,60.24
2022-10-31T13:39:53.375Z,62.47
2022-10-31T13:42:19.655Z,62.70
2022-10-31T13:44:45.928Z,62.30
2022-10-31T13:47:12.186Z,62.39
2022-10-31T13:49:39.024Z,61.83
2022-10-31T13:52:05.292Z,62.77
2022-10-31T13:54:32.291Z,62.65
2022-10-31T13:56:58.491Z,63.31
2022-10-31T13:59:24.931Z,63.15
2022-10-31T14:01:51.332Z,62.85
2022-10-31T14:04:23.908Z,62.83
2022-10-31T14:06:51.672Z,62.02
2022-10-31T14:09:17.937Z,62.49
2022-10-31T14:11:44.185Z,62.80
2022-10-31T14:14:10.558Z,63.52
2022-10-31T14:16:39.088Z,63.71
2022-10-31T14:19:05.341Z,63.54
2022-10-31T14:21:31.628Z,64.39
2022-10-31T14:23:57.923Z,64.28
2022-10-31T14:26:25.062Z,64.46
2022-10-31T14:28:51.375Z,66.09
2022-10-31T14:31:17.665Z,65.76
2022-10-31T14:33:43.948Z,66.45
2022-10-31T14:36:10.395Z,66.80
2022-10-31T14:38:36.653Z,67.25
2022-10-31T14:41:02.946Z,67.26
2022-10-31T14:43:29.213Z,67.77
2022-10-31T14:45:55.774Z,68.01
2022-10-31T14:48:22.062Z,68.33
2022-10-31T14:50:48.642Z,68.21
2022-10-31T14:53:14.946Z,69.13
2022-10-31T14:55:41.205Z,70.24
2022-10-31T14:58:07.463Z,71.54
2022-10-31T15:00:33.754Z,71.83
2022-10-31T15:03:00.486Z,74.22
2022-10-31T15:05:26.885Z,74.65
2022-10-31T18:25:43.486Z,65.65
2022-10-31T18:28:09.753Z,65.77
2022-10-31T18:30:36.022Z,65.76
2022-10-31T18:33:02.464Z,66.31
2022-10-31T18:35:28.769Z,66.43
2022-10-31T18:37:56.067Z,66.45
2022-10-31T18:40:24.470Z,65.06
2022-10-31T18:42:50.717Z,65.67
2022-10-31T18:45:32.691Z,67.22
2022-10-31T18:48:03.437Z,67.24
2022-10-31T18:50:29.880Z,68.28
2022-10-31T18:52:56.203Z,68.85
2022-10-31T18:55:22.514Z,70.10
2022-10-31T18:57:48.799Z,70.30
2022-10-31T19:00:17.347Z,70.29
2022-10-31T19:02:43.611Z,70.33
2022-10-31T19:05:09.936Z,70.31
2022-10-31T19:07:36.189Z,70.46
2022-10-31T19:10:02.435Z,70.23
2022-10-31T19:12:28.704Z,70.04
2022-10-31T19:14:55.259Z,69.86
2022-10-31T19:17:21.802Z,70.03
2022-10-31T19:19:48.048Z,69.85
2022-10-31T19:22:14.292Z,70.05
2022-10-31T19:24:40.622Z,69.49
2022-10-31T19:27:06.911Z,69.70
2022-10-31T19:29:33.442Z,69.21
2022-10-31T19:31:59.694Z,69.44
2022-10-31T19:34:25.942Z,69.23
2022-10-31T19:36:52.215Z,69.03
2022-10-31T19:39:18.477Z,69.07
2022-10-31T19:41:44.742Z,69.04
2022-10-31T19:44:13.377Z,68.64
2022-10-31T19:46:59.762Z,68.50
2022-10-31T19:49:26.039Z,68.42
2022-10-31T19:54:43.075Z,68.17
2022-10-31T19:57:09.332Z,68.30
2022-10-31T19:59:39.336Z,68.08
2022-10-31T20:02:05.915Z,68.10
2022-10-31T20:04:32.399Z,68.08
2022-10-31T20:06:58.662Z,67.78
2022-10-31T20:09:26.921Z,67.66
2022-10-31T20:11:53.321Z,67.63
2022-10-31T20:14:19.618Z,67.49
2022-10-31T20:16:45.893Z,67.56
2022-10-31T20:19:12.137Z,67.62
2022-10-31T20:21:38.572Z,67.64
2022-10-31T20:24:04.820Z,67.30
2022-10-31T20:26:31.084Z,66.91
2022-10-31T20:28:57.356Z,66.86
2022-10-31T20:31:23.632Z,66.96
2022-10-31T20:33:49.877Z,67.01
2022-10-31T20:36:19.369Z,67.53
2022-10-31T20:38:45.624Z,67.44
2022-10-31T20:41:11.962Z,67.73
2022-10-31T20:43:38.209Z,67.32
2022-10-31T20:46:04.494Z,67.43
2022-10-31T20:48:30.762Z,67.68
2022-10-31T20:50:57.293Z,67.35
2022-10-31T20:53:23.548Z,67.43
2022-10-31T20:55:49.817Z,67.57
2022-10-31T20:58:16.056Z,67.50
2022-10-31T21:00:42.490Z,68.00
2022-10-31T21:03:08.761Z,67.86
2022-10-31T21:05:35.009Z,67.68
2022-10-31T21:08:01.296Z,67.96
2022-10-31T21:10:27.650Z,67.98
2022-10-31T21:12:53.933Z,68.01
2022-10-31T21:15:20.197Z,68.26
2022-10-31T21:17:46.549Z,68.21
2022-10-31T21:20:12.839Z,68.29
2022-10-31T21:22:39.181Z,68.38
2022-10-31T21:25:05.491Z,68.25
2022-10-31T21:27:31.797Z,68.16
2022-10-31T21:29:58.069Z,67.95
2022-10-31T21:32:24.342Z,68.21
2022-10-31T21:34:50.629Z,67.97
2022-10-31T21:37:16.889Z,67.98
2022-10-31T21:39:46.891Z,67.79
2022-10-31T21:42:20.462Z,67.66
2022-10-31T21:44:47.905Z,67.83
